Time;durP1;ratioP1;P1;durP2;ratioP2;P2;SDS_P1;SDS_P2;PMS_P1;PMS_P2;Temp;Humidity;BMP_temperature;BMP_pressure;BME280_temperature;BME280_humidity;BME280_pressure;Samples;Min_cycle;Max_cycle;Signal;HPM_P1;HPM_P2
2023/04/15 00:02:18;;;;;;;26.77;6.00;;;17.20;56.20;;;;;;5127680;28;20220;-88
2023/04/15 00:04:53;;;;;;;21.47;5.80;;;17.20;56.20;;;;;;5122126;28;20228;-86
2023/04/15 00:07:28;;;;;;;22.43;5.70;;;17.20;56.30;;;;;;5124651;28;20734;-86
2023/04/15 00:09:58;;;;;;;29.03;6.53;;;17.20;56.30;;;;;;5102433;28;20198;-86
2023/04/15 00:12:25;;;;;;;23.10;5.40;;;17.20;56.30;;;;;;5104962;28;20208;-86
2023/04/15 00:17:34;;;;;;;29.80;6.30;;;17.20;56.30;;;;;;5104201;28;20201;-85
2023/04/15 00:20:08;;;;;;;26.30;6.03;;;17.20;56.30;;;;;;5090544;28;20202;-85
2023/04/15 00:25:23;;;;;;;25.20;5.63;;;17.20;56.30;;;;;;5099560;28;20660;-86
2023/04/15 00:27:52;;;;;;;19.40;5.13;;;17.20;56.30;;;;;;5092589;28;20338;-85
2023/04/15 00:30:25;;;;;;;19.80;5.23;;;17.20;56.30;;;;;;5097550;28;20232;-85
2023/04/15 00:32:52;;;;;;;15.27;5.03;;;17.10;56.20;;;;;;5101830;28;20213;-85
2023/04/15 00:35:20;;;;;;;19.30;5.03;;;17.20;56.30;;;;;;5108745;28;20200;-85
2023/04/15 00:37:55;;;;;;;14.40;5.07;;;17.20;56.30;;;;;;5111736;28;20224;-85
2023/04/15 00:40:31;;;;;;;29.60;6.43;;;17.10;56.20;;;;;;5095257;28;20210;-86
2023/04/15 00:42:58;;;;;;;25.07;5.53;;;17.10;56.20;;;;;;5098058;28;20288;-88
2023/04/15 00:45:27;;;;;;;22.50;5.60;;;17.20;56.30;;;;;;5105347;28;20196;-88
2023/04/15 00:47:54;;;;;;;22.47;5.60;;;17.10;56.20;;;;;;5095540;28;20205;-88
2023/04/15 00:50:21;;;;;;;26.30;6.17;;;17.10;56.20;;;;;;5093073;28;20217;-87
2023/04/15 00:52:48;;;;;;;22.33;5.93;;;17.10;56.20;;;;;;5099604;28;20305;-87
2023/04/15 00:55:16;;;;;;;22.53;5.37;;;17.00;56.10;;;;;;5105179;28;20670;-87
2023/04/15 00:57:45;;;;;;;24.37;5.93;;;17.10;56.20;;;;;;5097310;28;20288;-87
2023/04/15 01:00:16;;;;;;;17.03;5.50;;;17.10;56.20;;;;;;5114920;28;20182;-87
2023/04/15 01:02:47;;;;;;;22.23;5.63;;;17.00;56.10;;;;;;5119673;28;20193;-87
2023/04/15 01:05:18;;;;;;;19.23;5.10;;;17.00;56.10;;;;;;5115351;28;20181;-88
2023/04/15 01:07:51;;;;;;;27.53;6.33;;;17.00;56.10;;;;;;5116004;28;20190;-87
2023/04/15 01:10:27;;;;;;;27.00;5.87;;;17.00;56.10;;;;;;5116094;28;20185;-87
2023/04/15 01:13:20;;;;;;;24.10;5.97;;;17.00;56.10;;;;;;5115805;28;20197;-87
2023/04/15 01:15:57;;;;;;;8.30;4.60;;;17.00;56.10;;;;;;5108541;28;20296;-87
2023/04/15 01:18:27;;;;;;;9.73;4.37;;;17.00;56.10;;;;;;5108237;28;20203;-87
2023/04/15 01:20:54;;;;;;;19.27;5.00;;;17.00;56.10;;;;;;5110466;28;20233;-87
2023/04/15 01:23:24;;;;;;;29.67;5.93;;;17.00;56.10;;;;;;5130837;28;20230;-88
2023/04/15 01:25:56;;;;;;;13.13;4.87;;;17.00;56.10;;;;;;5135388;28;20220;-87
2023/04/15 01:28:28;;;;;;;9.37;3.97;;;17.00;56.10;;;;;;5128099;28;20232;-87
2023/04/15 01:31:10;;;;;;;16.30;5.10;;;17.00;56.20;;;;;;5119205;28;20200;-88
2023/04/15 01:33:39;;;;;;;16.73;5.03;;;17.00;56.10;;;;;;5119535;28;20205;-87
2023/04/15 01:36:10;;;;;;;21.37;5.47;;;17.00;56.10;;;;;;5107814;28;20957;-87
2023/04/15 01:38:42;;;;;;;17.33;5.13;;;17.00;56.10;;;;;;5108083;28;20666;-87
2023/04/15 01:41:18;;;;;;;11.63;5.00;;;16.90;56.10;;;;;;5104912;28;20559;-87
2023/04/15 01:43:51;;;;;;;19.67;5.03;;;16.90;56.70;;;;;;5107954;28;20226;-87
2023/04/15 01:46:20;;;;;;;12.50;4.57;;;16.90;56.00;;;;;;5105103;28;20231;-86
2023/04/15 01:48:47;;;;;;;22.03;5.43;;;17.00;56.10;;;;;;5112741;28;20190;-87
2023/04/15 01:51:17;;;;;;;17.43;4.90;;;16.90;56.00;;;;;;5103054;28;20550;-87
2023/04/15 01:53:44;;;;;;;16.70;5.10;;;16.90;56.10;;;;;;5102963;28;20335;-88
2023/04/15 01:56:11;;;;;;;17.93;5.67;;;16.90;56.10;;;;;;5102751;28;20207;-87
2023/04/15 01:58:43;;;;;;;18.47;5.20;;;16.90;56.10;;;;;;5114723;28;20206;-87
2023/04/15 02:01:13;;;;;;;17.53;5.10;;;16.90;56.10;;;;;;5112539;28;20204;-87
2023/04/15 02:03:46;;;;;;;21.20;5.40;;;16.90;56.10;;;;;;5088904;28;20224;-87
2023/04/15 02:06:17;;;;;;;18.07;5.07;;;16.90;56.10;;;;;;5095269;28;20229;-87
2023/04/15 02:08:45;;;;;;;32.47;6.53;;;16.90;56.10;;;;;;5094203;28;20206;-88
2023/04/15 02:11:19;;;;;;;20.17;4.97;;;16.80;56.00;;;;;;5096099;28;20670;-87
2023/04/15 02:13:47;;;;;;;15.67;5.00;;;16.80;56.00;;;;;;5096434;28;20243;-87
2023/04/15 02:16:18;;;;;;;18.80;5.50;;;16.80;56.00;;;;;;5106511;28;20839;-87
2023/04/15 02:18:46;;;;;;;19.80;5.20;;;16.80;56.00;;;;;;5095821;28;20291;-87
2023/04/15 02:21:13;;;;;;;15.73;5.10;;;16.80;56.10;;;;;;5104999;28;20317;-87
2023/04/15 02:23:52;;;;;;;29.73;5.93;;;16.80;56.10;;;;;;5094351;28;20605;-87
2023/04/15 02:29:02;;;;;;;27.83;5.97;;;16.80;56.10;;;;;;5105042;28;20207;-87
2023/04/15 02:31:35;;;;;;;32.43;6.67;;;16.80;56.10;;;;;;5091794;28;20310;-87
2023/04/15 02:34:03;;;;;;;26.23;5.57;;;16.70;56.00;;;;;;5104895;28;20687;-87
2023/04/15 02:36:39;;;;;;;19.03;5.37;;;16.80;56.10;;;;;;5108013;28;20252;-87
2023/04/15 02:39:06;;;;;;;25.23;5.33;;;16.80;56.10;;;;;;5106857;28;20261;-85
2023/04/15 02:41:33;;;;;;;19.17;5.07;;;16.80;56.10;;;;;;5103103;28;20591;-85
2023/04/15 02:44:01;;;;;;;25.87;5.83;;;16.70;56.00;;;;;;5092451;28;20275;-85
2023/04/15 02:46:29;;;;;;;20.07;4.93;;;16.70;56.00;;;;;;5094502;28;20206;-84
2023/04/15 02:48:58;;;;;;;32.17;5.80;;;16.70;56.00;;;;;;5107295;28;20206;-87
2023/04/15 02:51:30;;;;;;;30.57;5.87;;;16.70;56.00;;;;;;5107489;28;20312;-87
2023/04/15 02:53:57;;;;;;;21.30;5.50;;;16.70;56.00;;;;;;5111536;28;20666;-87
2023/04/15 02:56:24;;;;;;;16.37;4.97;;;16.70;56.00;;;;;;5110251;28;20205;-87
2023/04/15 02:58:54;;;;;;;18.50;5.67;;;16.80;56.10;;;;;;5105315;28;20202;-87
2023/04/15 03:01:32;;;;;;;20.47;5.53;;;16.70;56.60;;;;;;5091465;28;20297;-87
2023/04/15 03:04:06;;;;;;;15.73;4.73;;;16.70;56.00;;;;;;5095311;28;20239;-87
2023/04/15 03:06:48;;;;;;;31.50;5.90;;;16.70;56.00;;;;;;5109565;28;20214;-87
2023/04/15 03:09:15;;;;;;;16.67;4.70;;;16.70;56.00;;;;;;5114026;28;20194;-87
2023/04/15 03:11:43;;;;;;;13.00;4.53;;;16.70;56.10;;;;;;5114368;28;20203;-87
2023/04/15 03:14:15;;;;;;;15.73;4.87;;;16.70;56.10;;;;;;5114073;28;20185;-87
2023/04/15 03:16:50;;;;;;;15.40;4.63;;;16.70;56.10;;;;;;5116417;28;20180;-87
2023/04/15 03:19:20;;;;;;;15.63;4.43;;;16.60;56.00;;;;;;5122216;28;20196;-87
2023/04/15 03:21:51;;;;;;;10.53;4.33;;;16.70;56.10;;;;;;5127783;28;20233;-87
2023/04/15 03:24:20;;;;;;;10.73;4.13;;;16.60;56.00;;;;;;5126067;28;20212;-87
2023/04/15 03:27:06;;;;;;;13.07;4.40;;;16.60;56.00;;;;;;5130223;28;20207;-87
2023/04/15 03:29:37;;;;;;;14.80;4.77;;;16.60;56.00;;;;;;5115212;28;20210;-88
2023/04/15 03:32:05;;;;;;;17.70;4.63;;;16.60;56.00;;;;;;5116030;28;20242;-87
2023/04/15 03:34:39;;;;;;;22.70;5.43;;;16.60;56.00;;;;;;5115439;28;20183;-87
2023/04/15 03:37:09;;;;;;;13.57;4.17;;;16.60;56.00;;;;;;5131597;28;20248;-86
2023/04/15 03:39:42;;;;;;;12.23;4.40;;;16.60;56.10;;;;;;5132123;28;20222;-87
2023/04/15 03:42:12;;;;;;;11.50;4.20;;;16.60;56.00;;;;;;5126534;28;20243;-89
2023/04/15 03:44:45;;;;;;;20.67;5.13;;;16.60;56.10;;;;;;5115934;28;20212;-87
2023/04/15 03:47:16;;;;;;;16.27;4.60;;;16.60;56.00;;;;;;5116335;28;20191;-87
2023/04/15 03:49:43;;;;;;;21.87;5.13;;;16.60;56.10;;;;;;5117468;28;20211;-86
2023/04/15 03:52:18;;;;;;;16.60;4.97;;;16.50;56.00;;;;;;5118670;28;20196;-86
2023/04/15 03:54:56;;;;;;;17.30;5.30;;;16.50;56.00;;;;;;5137047;28;20193;-86
2023/04/15 03:57:25;;;;;;;17.53;5.23;;;16.50;56.00;;;;;;5123263;28;20183;-87
2023/04/15 04:00:03;;;;;;;11.23;4.70;;;16.60;56.10;;;;;;5134155;28;20228;-87
2023/04/15 04:02:32;;;;;;;7.43;4.27;;;16.50;56.00;;;;;;5136545;28;20255;-87
2023/04/15 04:05:24;;;;;;;10.63;3.97;;;16.50;56.00;;;;;;5133245;28;20227;-87
2023/04/15 04:07:52;;;;;;;16.93;5.17;;;16.50;56.00;;;;;;5124984;28;20175;-87
2023/04/15 04:10:22;;;;;;;14.93;5.20;;;16.50;56.10;;;;;;5133861;28;20185;-87
2023/04/15 04:12:51;;;;;;;16.43;5.33;;;16.50;56.10;;;;;;5114101;28;20210;-87
2023/04/15 04:15:32;;;;;;;12.37;4.60;;;16.50;56.10;;;;;;5116240;28;20208;-87
2023/04/15 04:18:17;;;;;;;12.30;4.23;;;16.40;56.00;;;;;;5117464;28;20207;-87
2023/04/15 04:20:54;;;;;;;13.63;4.47;;;16.60;56.20;;;;;;5109821;28;20204;-87
2023/04/15 04:23:24;;;;;;;15.80;5.50;;;16.50;56.10;;;;;;5104233;28;20673;-87
2023/04/15 04:25:51;;;;;;;26.57;6.00;;;16.50;56.10;;;;;;5104446;28;20240;-87
2023/04/15 04:28:18;;;;;;;16.10;5.10;;;16.50;56.10;;;;;;5102611;28;20259;-87
2023/04/15 04:30:47;;;;;;;27.97;5.83;;;16.50;56.10;;;;;;5097485;28;20695;-87
2023/04/15 04:33:18;;;;;;;14.40;4.80;;;16.50;56.10;;;;;;5092031;28;20208;-87
2023/04/15 04:35:47;;;;;;;16.17;4.93;;;16.50;56.20;;;;;;5101442;28;20222;-87
2023/04/15 04:38:14;;;;;;;17.90;5.40;;;16.40;56.10;;;;;;5113672;28;20195;-87
2023/04/15 04:40:41;;;;;;;15.07;4.63;;;16.50;56.20;;;;;;5105260;28;20195;-87
2023/04/15 04:43:08;;;;;;;18.13;5.33;;;16.40;56.10;;;;;;5102656;28;20546;-87
2023/04/15 04:45:38;;;;;;;20.20;5.67;;;16.40;56.20;;;;;;5108242;28;20277;-87
2023/04/15 04:48:07;;;;;;;14.97;5.37;;;16.40;56.10;;;;;;5103597;28;20277;-87
2023/04/15 04:50:36;;;;;;;18.80;5.67;;;16.40;56.10;;;;;;5111138;28;20275;-87
2023/04/15 04:53:04;;;;;;;14.20;5.20;;;16.50;56.30;;;;;;5120357;28;20525;-87
2023/04/15 04:55:35;;;;;;;26.90;6.37;;;16.50;56.20;;;;;;5103215;28;20203;-87
2023/04/15 04:58:04;;;;;;;32.13;7.17;;;16.40;56.20;;;;;;5115681;28;20204;-87
2023/04/15 05:00:33;;;;;;;20.13;6.50;;;16.40;56.20;;;;;;5111356;28;20195;-86
2023/04/15 05:03:04;;;;;;;24.80;6.63;;;16.40;56.20;;;;;;5110032;28;20203;-86
2023/04/15 05:05:31;;;;;;;19.43;6.37;;;16.40;56.20;;;;;;5116217;28;20235;-86
2023/04/15 05:07:59;;;;;;;19.07;6.47;;;16.40;56.20;;;;;;5115567;28;20203;-86
2023/04/15 05:10:26;;;;;;;22.70;6.07;;;16.50;56.30;;;;;;5116217;28;20650;-86
2023/04/15 05:12:56;;;;;;;18.53;5.77;;;16.40;56.20;;;;;;5110052;28;20675;-86
2023/04/15 05:15:27;;;;;;;18.03;6.47;;;16.40;56.20;;;;;;5111229;28;20551;-86
2023/04/15 05:17:54;;;;;;;23.90;6.50;;;16.40;56.20;;;;;;5116919;28;20241;-85
2023/04/15 05:20:32;;;;;;;18.47;6.07;;;16.40;56.30;;;;;;5110212;28;20199;-86
2023/04/15 05:23:00;;;;;;;16.33;6.13;;;16.40;56.20;;;;;;5096259;28;20198;-86
2023/04/15 05:25:27;;;;;;;18.80;5.73;;;16.40;56.20;;;;;;5096541;28;20587;-86
2023/04/15 05:27:55;;;;;;;21.00;6.50;;;16.40;56.20;;;;;;5100002;28;20222;-86
2023/04/15 05:30:26;;;;;;;15.97;6.13;;;16.50;56.30;;;;;;5094311;28;20205;-85
2023/04/15 05:32:53;;;;;;;23.70;6.67;;;16.40;56.30;;;;;;5094410;28;20282;-86
2023/04/15 05:35:20;;;;;;;31.87;7.73;;;16.40;56.30;;;;;;5093024;28;20192;-85
2023/04/15 05:37:48;;;;;;;30.67;7.27;;;16.40;56.30;;;;;;5095894;28;20559;-85
2023/04/15 05:40:17;;;;;;;24.90;6.97;;;16.40;56.20;;;;;;5098276;28;20203;-86
2023/04/15 05:42:45;;;;;;;23.10;6.73;;;16.40;56.20;;;;;;5101752;28;20194;-86
2023/04/15 05:45:12;;;;;;;26.63;7.03;;;16.40;56.30;;;;;;5093885;28;20231;-86
2023/04/15 05:47:40;;;;;;;20.23;6.43;;;16.30;56.20;;;;;;5104225;28;20205;-86
2023/04/15 05:50:08;;;;;;;19.77;6.70;;;16.30;56.20;;;;;;5106000;28;20221;-86
2023/04/15 05:52:35;;;;;;;16.27;6.60;;;16.30;56.20;;;;;;5099412;28;20199;-86
2023/04/15 05:55:02;;;;;;;30.07;7.20;;;16.40;56.30;;;;;;5095202;28;20199;-86
2023/04/15 05:57:31;;;;;;;25.57;7.13;;;16.30;56.20;;;;;;5095493;28;20191;-85
2023/04/15 05:59:58;;;;;;;26.93;7.43;;;16.30;56.20;;;;;;5097220;28;20209;-85
2023/04/15 06:02:25;;;;;;;26.63;7.40;;;16.30;56.20;;;;;;5111758;28;20205;-85
2023/04/15 06:04:55;;;;;;;32.17;7.40;;;16.30;56.20;;;;;;5103766;28;20227;-86
2023/04/15 06:07:22;;;;;;;20.17;6.60;;;16.30;56.20;;;;;;5111710;28;20198;-86
2023/04/15 06:09:49;;;;;;;23.33;7.03;;;16.30;56.20;;;;;;5095406;28;20205;-85
2023/04/15 06:12:20;;;;;;;23.03;7.20;;;16.30;56.20;;;;;;5095001;28;20229;-85
2023/04/15 06:14:48;;;;;;;26.20;6.93;;;16.30;56.80;;;;;;5096490;28;20204;-85
2023/04/15 06:17:17;;;;;;;25.50;7.20;;;16.30;56.20;;;;;;5092043;28;20537;-86
2023/04/15 06:19:45;;;;;;;26.20;6.50;;;16.30;56.20;;;;;;5107025;28;20735;-86
2023/04/15 06:22:13;;;;;;;23.47;6.37;;;16.30;56.20;;;;;;5113842;28;20217;-86
2023/04/15 06:24:40;;;;;;;19.97;6.37;;;16.30;56.30;;;;;;5100304;28;20193;-86
2023/04/15 06:27:09;;;;;;;36.00;7.53;;;16.20;56.20;;;;;;5105046;28;20208;-86
2023/04/15 06:29:38;;;;;;;18.93;6.50;;;16.30;56.20;;;;;;5093116;28;20282;-86
2023/04/15 06:32:07;;;;;;;26.33;6.90;;;16.30;56.30;;;;;;5109891;28;20203;-85
2023/04/15 06:34:36;;;;;;;19.80;6.23;;;16.30;56.30;;;;;;5112428;28;20200;-86
2023/04/15 06:37:03;;;;;;;27.97;6.67;;;16.30;56.30;;;;;;5111480;28;20221;-86
2023/04/15 06:39:31;;;;;;;30.30;6.97;;;16.30;56.30;;;;;;5105776;28;20225;-86
2023/04/15 06:41:58;;;;;;;27.43;6.37;;;16.30;56.30;;;;;;5106287;28;20743;-85
2023/04/15 06:44:25;;;;;;;25.57;5.97;;;16.30;56.30;;;;;;5100837;28;20668;-86
2023/04/15 06:46:53;;;;;;;20.37;5.67;;;16.30;56.30;;;;;;5101520;28;20228;-86
2023/04/15 06:49:21;;;;;;;23.80;6.53;;;16.30;56.30;;;;;;5090875;28;20218;-86
2023/04/15 06:51:51;;;;;;;17.93;5.30;;;16.30;56.30;;;;;;5093319;28;20199;-86
2023/04/15 06:54:18;;;;;;;23.00;6.13;;;16.30;56.30;;;;;;5095780;28;20212;-86
2023/04/15 06:56:46;;;;;;;25.47;6.37;;;16.30;56.30;;;;;;5105470;28;20204;-86
2023/04/15 06:59:14;;;;;;;25.10;6.07;;;16.30;56.30;;;;;;5116605;28;20203;-85
2023/04/15 07:01:41;;;;;;;26.90;6.10;;;16.30;56.30;;;;;;5119164;28;20202;-86
2023/04/15 07:04:09;;;;;;;24.03;6.67;;;16.30;56.30;;;;;;5119514;28;20216;-86
2023/04/15 07:06:38;;;;;;;21.43;6.07;;;16.30;56.30;;;;;;5121013;28;20340;-86
2023/04/15 07:09:05;;;;;;;19.33;6.00;;;16.20;56.30;;;;;;5125195;28;20201;-86
2023/04/15 07:11:32;;;;;;;23.33;6.17;;;16.20;56.20;;;;;;5125174;28;20195;-86
2023/04/15 07:13:59;;;;;;;25.50;6.23;;;16.30;56.30;;;;;;5112788;28;20563;-86
2023/04/15 07:16:28;;;;;;;29.33;6.60;;;16.30;56.30;;;;;;5094654;28;20209;-86
2023/04/15 07:18:56;;;;;;;32.00;7.00;;;16.20;56.30;;;;;;5100769;28;20221;-86
2023/04/15 07:21:24;;;;;;;22.67;5.87;;;16.30;56.40;;;;;;5116490;28;20212;-86
2023/04/15 07:23:54;;;;;;;29.20;6.10;;;16.20;56.30;;;;;;5096888;28;20232;-86
2023/04/15 07:26:22;;;;;;;23.57;6.00;;;16.20;56.30;;;;;;5099668;28;20286;-86
2023/04/15 07:28:50;;;;;;;30.17;6.50;;;16.20;56.30;;;;;;5096188;28;20660;-86
2023/04/15 07:31:20;;;;;;;24.93;6.37;;;16.20;56.30;;;;;;5115851;28;20214;-86
2023/04/15 07:33:47;;;;;;;20.83;5.17;;;16.20;56.30;;;;;;5114371;28;20206;-86
2023/04/15 07:36:15;;;;;;;20.60;5.60;;;16.20;56.30;;;;;;5095579;28;20223;-86
2023/04/15 07:38:42;;;;;;;22.60;5.80;;;16.20;56.30;;;;;;5099013;28;20200;-86
2023/04/15 07:41:12;;;;;;;28.03;6.03;;;16.20;56.30;;;;;;5093365;28;20197;-86
2023/04/15 07:43:39;;;;;;;20.67;5.30;;;16.20;56.30;;;;;;5089041;28;20214;-86
2023/04/15 07:46:06;;;;;;;18.33;5.20;;;16.20;56.30;;;;;;5096485;28;20237;-86
2023/04/15 07:48:33;;;;;;;18.77;5.57;;;16.20;56.30;;;;;;5109213;28;20214;-86
2023/04/15 07:51:01;;;;;;;26.90;5.77;;;16.20;56.40;;;;;;5107821;28;20794;-86
2023/04/15 07:53:31;;;;;;;21.53;5.53;;;16.40;56.50;;;;;;5110550;28;20262;-86
2023/04/15 07:56:00;;;;;;;24.87;6.10;;;16.20;56.40;;;;;;5107660;28;20297;-86
2023/04/15 07:58:28;;;;;;;26.03;6.07;;;16.20;56.40;;;;;;5106913;28;20205;-86
2023/04/15 08:00:57;;;;;;;24.37;5.57;;;16.30;56.50;;;;;;5089932;28;20238;-86
2023/04/15 08:03:25;;;;;;;20.43;5.73;;;16.20;56.40;;;;;;5092860;28;20202;-86
2023/04/15 08:05:54;;;;;;;23.23;5.57;;;16.20;56.40;;;;;;5105053;28;20218;-86
2023/04/15 08:08:22;;;;;;;19.83;5.57;;;16.20;56.40;;;;;;5107608;28;20194;-86
2023/04/15 08:10:51;;;;;;;28.83;6.57;;;16.30;56.50;;;;;;5107892;28;21644;-86
2023/04/15 08:13:21;;;;;;;25.23;6.57;;;16.30;56.50;;;;;;5110423;28;21032;-87
2023/04/15 08:16:14;;;;;;;21.17;6.07;;;16.30;56.50;;;;;;5102760;28;20267;-87
2023/04/15 08:18:41;;;;;;;25.07;6.43;;;16.10;56.40;;;;;;5110801;28;20373;-87
2023/04/15 08:21:09;;;;;;;33.77;7.27;;;16.30;56.50;;;;;;5093728;28;20347;-87
2023/04/15 08:23:36;;;;;;;26.07;7.07;;;16.20;56.50;;;;;;5090452;28;20263;-87
2023/04/15 08:26:03;;;;;;;20.67;6.23;;;16.30;56.60;;;;;;5091076;28;20227;-87
2023/04/15 08:28:40;;;;;;;23.37;6.80;;;16.30;56.60;;;;;;5098741;28;20196;-87
2023/04/15 08:31:09;;;;;;;28.87;7.40;;;16.30;56.60;;;;;;5113813;28;20209;-88
2023/04/15 08:33:37;;;;;;;29.27;7.60;;;16.30;56.60;;;;;;5110203;28;20199;-87
2023/04/15 08:36:05;;;;;;;19.40;6.67;;;16.30;56.60;;;;;;5103088;28;20282;-87
2023/04/15 08:38:32;;;;;;;24.63;7.00;;;16.30;57.20;;;;;;5111346;28;20200;-87
2023/04/15 08:41:03;;;;;;;26.30;7.33;;;16.40;56.70;;;;;;5110501;28;20693;-87
2023/04/15 08:43:36;;;;;;;23.10;7.23;;;16.30;56.70;;;;;;5114934;28;20198;-88
2023/04/15 08:46:05;;;;;;;18.43;7.03;;;16.30;56.70;;;;;;5101737;28;20233;-87
2023/04/15 08:48:43;;;;;;;27.43;7.87;;;16.30;56.70;;;;;;5110907;28;20222;-88
2023/04/15 08:51:14;;;;;;;29.10;8.17;;;16.30;56.70;;;;;;5113255;28;20218;-88
2023/04/15 08:53:42;;;;;;;23.40;7.33;;;16.40;56.80;;;;;;5118293;28;20201;-88
2023/04/15 08:56:14;;;;;;;23.87;7.77;;;16.40;56.80;;;;;;5109323;28;20291;-87
2023/04/15 08:58:41;;;;;;;29.13;8.60;;;16.40;56.80;;;;;;5101447;28;20198;-87
2023/04/15 09:01:09;;;;;;;21.00;7.40;;;16.40;56.80;;;;;;5102063;28;20695;-88
2023/04/15 09:03:40;;;;;;;17.87;7.13;;;16.40;56.80;;;;;;5101192;28;20210;-87
2023/04/15 09:06:09;;;;;;;22.37;7.17;;;16.40;56.80;;;;;;5112620;28;20217;-87
2023/04/15 09:08:36;;;;;;;30.20;8.23;;;16.40;56.80;;;;;;5120258;28;20954;-88
2023/04/15 09:11:05;;;;;;;22.47;8.40;;;16.50;56.90;;;;;;5117958;28;20211;-88
2023/04/15 09:13:36;;;;;;;18.33;6.83;;;16.50;57.00;;;;;;5120721;27;20629;-88
2023/04/15 09:16:05;;;;;;;15.97;8.23;;;16.50;56.90;;;;;;5133308;28;20681;-88
2023/04/15 09:18:51;;;;;;;18.40;7.57;;;16.50;56.90;;;;;;5123849;28;20276;-87
2023/04/15 09:21:24;;;;;;;16.63;8.00;;;16.50;57.00;;;;;;5111644;28;20765;-88
2023/04/15 09:24:04;;;;;;;23.03;7.40;;;16.50;56.90;;;;;;5113370;28;20199;-88
2023/04/15 09:26:35;;;;;;;15.57;7.30;;;16.60;57.10;;;;;;5116730;28;20241;-87
2023/04/15 09:29:12;;;;;;;16.77;7.33;;;16.50;57.00;;;;;;5136212;28;20901;-88
2023/04/15 09:31:40;;;;;;;34.87;8.47;;;16.60;57.10;;;;;;5110687;28;20204;-88
2023/04/15 09:34:14;;;;;;;14.93;7.20;;;16.60;57.00;;;;;;5110252;28;20200;-88
2023/04/15 09:36:58;;;;;;;25.40;7.53;;;16.60;57.10;;;;;;5119821;28;20245;-88
2023/04/15 09:39:27;;;;;;;16.97;7.67;;;16.60;57.20;;;;;;5130397;28;20209;-88
2023/04/15 09:42:12;;;;;;;21.37;7.83;;;16.60;57.10;;;;;;5118711;28;20625;-88
2023/04/15 09:44:40;;;;;;;22.67;7.80;;;16.60;57.20;;;;;;5113788;28;20781;-88
2023/04/15 09:47:26;;;;;;;23.47;7.93;;;16.60;57.10;;;;;;5102071;28;20226;-88
2023/04/15 09:49:59;;;;;;;27.87;8.70;;;16.70;57.20;;;;;;5103207;28;20220;-87
2023/04/15 09:52:27;;;;;;;37.87;9.90;;;16.70;57.20;;;;;;5110463;28;20201;-88
2023/04/15 09:54:55;;;;;;;27.13;8.73;;;16.70;57.20;;;;;;5107848;28;20569;-88
2023/04/15 09:57:35;;;;;;;36.63;8.87;;;16.70;57.20;;;;;;5108390;28;20199;-88
2023/04/15 10:00:04;;;;;;;22.90;8.13;;;16.70;57.30;;;;;;5104181;28;20196;-88
2023/04/15 10:02:33;;;;;;;33.93;8.10;;;16.70;57.20;;;;;;5102530;28;20621;-88
2023/04/15 10:05:03;;;;;;;19.13;7.43;;;16.80;57.30;;;;;;5108103;28;20240;-88
2023/04/15 10:07:32;;;;;;;26.77;8.73;;;16.80;57.30;;;;;;5093030;28;20227;-88
2023/04/15 10:10:01;;;;;;;27.60;8.33;;;16.70;57.20;;;;;;5094802;28;20203;-88
2023/04/15 10:12:29;;;;;;;28.93;9.03;;;16.80;57.30;;;;;;5108273;28;20216;-88
2023/04/15 10:14:59;;;;;;;31.93;9.00;;;16.80;57.30;;;;;;5096395;28;20270;-87
2023/04/15 10:17:28;;;;;;;26.63;8.33;;;16.90;57.40;;;;;;5113172;28;20842;-88
2023/04/15 10:19:57;;;;;;;26.53;8.70;;;16.90;57.40;;;;;;5095638;28;20236;-88
2023/04/15 10:22:27;;;;;;;30.67;8.80;;;16.90;57.40;;;;;;5104936;28;20197;-90
2023/04/15 10:24:56;;;;;;;29.37;7.93;;;16.90;57.40;;;;;;5091640;28;20209;-88
2023/04/15 10:27:23;;;;;;;24.10;7.73;;;16.90;57.40;;;;;;5100560;28;20235;-87
2023/04/15 10:29:51;;;;;;;45.30;9.87;;;17.00;57.50;;;;;;5096260;28;20216;-92
2023/04/15 10:32:20;;;;;;;36.63;9.23;;;17.00;57.50;;;;;;5104289;28;20200;-88
2023/04/15 10:34:49;;;;;;;39.80;9.10;;;17.00;57.50;;;;;;5104237;28;20221;-88
2023/04/15 10:37:21;;;;;;;28.17;7.80;;;17.00;57.60;;;;;;5092322;28;20225;-89
2023/04/15 10:39:48;;;;;;;31.30;8.37;;;17.00;57.60;;;;;;5091124;28;20237;-89
2023/04/15 10:42:23;;;;;;;36.10;9.23;;;17.00;57.60;;;;;;5091214;28;20213;-90
2023/04/15 10:44:56;;;;;;;24.10;7.67;;;17.10;57.60;;;;;;5090875;28;20192;-93
2023/04/15 10:47:24;;;;;;;36.53;8.70;;;17.10;57.60;;;;;;5091953;28;20233;-85
2023/04/15 10:49:52;;;;;;;31.13;8.73;;;17.10;57.60;;;;;;5087273;28;20220;-86
2023/04/15 10:52:24;;;;;;;27.90;8.23;;;17.20;57.80;;;;;;5088196;28;20217;-86
2023/04/15 10:55:04;;;;;;;38.63;9.80;;;17.20;57.70;;;;;;5091753;28;20898;-89
2023/04/15 10:57:43;;;;;;;22.97;8.20;;;17.20;57.80;;;;;;5092390;28;20634;-89
2023/04/15 11:00:12;;;;;;;25.27;9.17;;;17.30;57.80;;;;;;5104601;28;20208;-88
2023/04/15 11:02:45;;;;;;;28.43;8.80;;;17.30;57.80;;;;;;5091960;28;20210;-88
2023/04/15 11:05:12;;;;;;;31.77;9.03;;;17.30;57.80;;;;;;5094274;28;20962;-88
2023/04/15 11:07:47;;;;;;;28.07;8.27;;;17.30;57.80;;;;;;5092620;28;20444;-88
2023/04/15 11:10:51;;;;;;;40.23;9.67;;;17.40;57.90;;;;;;5091666;28;20216;-88
2023/04/15 11:13:22;;;;;;;32.57;7.83;;;17.50;58.00;;;;;;5095689;28;20209;-89
2023/04/15 11:15:50;;;;;;;25.23;8.33;;;17.50;58.00;;;;;;5099929;28;20214;-89
2023/04/15 11:18:20;;;;;;;20.67;8.00;;;17.40;57.90;;;;;;5115088;28;20194;-89
2023/04/15 11:20:50;;;;;;;21.67;8.17;;;17.50;58.00;;;;;;5114725;28;20200;-88
2023/04/15 11:23:18;;;;;;;18.53;7.57;;;17.60;58.00;;;;;;5115421;28;20547;-87
2023/04/15 11:25:52;;;;;;;23.43;7.93;;;17.60;58.00;;;;;;5115414;28;20209;-90
2023/04/15 11:28:25;;;;;;;31.20;11.07;;;17.60;58.10;;;;;;5105796;28;20310;-87
2023/04/15 11:30:54;;;;;;;26.83;9.10;;;17.70;58.20;;;;;;5096184;28;20204;-88
2023/04/15 11:33:22;;;;;;;25.87;9.27;;;17.70;58.20;;;;;;5095377;28;20190;-87
2023/04/15 11:35:49;;;;;;;30.10;8.47;;;17.70;58.10;;;;;;5091889;28;20221;-88
2023/04/15 11:38:16;;;;;;;30.43;9.30;;;17.70;58.10;;;;;;5094584;28;20212;-88
2023/04/15 11:40:46;;;;;;;29.27;9.33;;;17.80;58.20;;;;;;5092333;28;20283;-88
2023/04/15 11:43:21;;;;;;;33.03;9.40;;;17.90;58.20;;;;;;5090934;28;20679;-89
2023/04/15 11:45:51;;;;;;;41.97;11.37;;;17.90;58.30;;;;;;5089140;28;20650;-87
2023/04/15 11:48:19;;;;;;;49.80;11.33;;;17.90;58.30;;;;;;5099962;28;20233;-87
2023/04/15 11:50:46;;;;;;;27.47;10.67;;;17.90;58.30;;;;;;5107744;28;20671;-88
2023/04/15 11:53:14;;;;;;;34.57;10.17;;;18.00;58.40;;;;;;5108913;28;20679;-88
2023/04/15 11:55:46;;;;;;;31.23;10.40;;;18.00;58.40;;;;;;5093836;28;20610;-86
2023/04/15 11:58:24;;;;;;;33.13;10.50;;;18.10;58.50;;;;;;5089737;28;20198;-87
2023/04/15 12:00:52;;;;;;;33.10;10.30;;;18.20;58.60;;;;;;5098549;28;21166;-87
2023/04/15 12:03:23;;;;;;;25.73;9.43;;;18.20;58.50;;;;;;5104728;28;20799;-91
2023/04/15 12:06:21;;;;;;;27.27;8.93;;;18.20;58.50;;;;;;5094405;28;20225;-87
2023/04/15 12:09:09;;;;;;;15.77;7.93;;;18.30;58.60;;;;;;5112162;28;20730;-87
2023/04/15 12:11:47;;;;;;;23.30;8.03;;;18.30;58.60;;;;;;5114215;28;20212;-87
2023/04/15 12:14:25;;;;;;;33.67;9.10;;;18.40;58.70;;;;;;5104832;28;20199;-87
2023/04/15 12:17:00;;;;;;;33.93;9.73;;;18.50;58.80;;;;;;5111890;28;20204;-87
2023/04/15 12:19:29;;;;;;;12.40;8.43;;;18.50;58.70;;;;;;5125080;28;20265;-88
2023/04/15 12:22:07;;;;;;;24.23;8.57;;;18.50;58.60;;;;;;5128394;28;20194;-87
2023/04/15 12:24:37;;;;;;;19.57;8.90;;;18.60;58.70;;;;;;5104095;28;20657;-88
2023/04/15 12:27:04;;;;;;;27.63;8.63;;;18.60;58.60;;;;;;5094668;28;20559;-87
2023/04/15 12:29:43;;;;;;;20.23;8.23;;;18.60;58.60;;;;;;5104018;28;20252;-87
2023/04/15 12:32:12;;;;;;;39.43;9.33;;;18.70;59.20;;;;;;5100705;28;20214;-87
2023/04/15 12:34:45;;;;;;;23.17;7.57;;;18.70;58.60;;;;;;5097961;28;20206;-87
2023/04/15 12:37:18;;;;;;;32.50;8.87;;;18.80;58.60;;;;;;5096423;28;20230;-87
2023/04/15 12:39:48;;;;;;;19.23;8.17;;;18.80;58.70;;;;;;5109149;28;20198;-87
2023/04/15 12:42:17;;;;;;;19.97;8.63;;;18.80;58.60;;;;;;5114754;27;20248;-87
2023/04/15 12:44:47;;;;;;;22.13;8.23;;;18.90;58.60;;;;;;5113387;28;20190;-87
2023/04/15 12:47:16;;;;;;;31.10;8.77;;;18.90;58.60;;;;;;5110852;28;20587;-87
2023/04/15 12:49:43;;;;;;;24.30;8.50;;;18.90;58.60;;;;;;5107138;28;20309;-87
2023/04/15 12:52:10;;;;;;;29.80;9.07;;;18.90;58.50;;;;;;5111627;28;20255;-87
2023/04/15 12:54:37;;;;;;;25.17;8.57;;;19.00;58.60;;;;;;5105841;28;20198;-87
2023/04/15 12:57:04;;;;;;;19.87;8.00;;;19.00;58.50;;;;;;5110342;28;20293;-87
2023/04/15 12:59:31;;;;;;;22.00;7.57;;;19.00;58.50;;;;;;5107242;28;20205;-87
2023/04/15 13:02:01;;;;;;;42.30;10.40;;;19.00;58.50;;;;;;5110128;28;20273;-88